Observation data for McLean on 12/10/2018      Previous  Date       Current Mesonet Observations  Soil Data  Daily Summary Page  Observations in Plain Language
KMCS 100600Z 30005KT M01/M08 A3032 RMK A01 T10101077  RH  060%=      5-min Rain = 0
KMCS 100605Z 29005KT M01/M08 A3032 RMK A01 T10121078  RH  061%=      5-min Rain = 0
KMCS 100610Z 29005KT M01/M08 A3032 RMK A01 T10141078  RH  062%=      5-min Rain = 0
KMCS 100615Z 29006KT M01/M08 A3032 RMK A01 T10131078  RH  061%=      5-min Rain = 0
KMCS 100620Z 29006KT M01/M08 A3032 RMK A01 T10121078  RH  061%=      5-min Rain = 0
KMCS 100625Z 29006KT M01/M08 A3031 RMK A01 T10091076  RH  060%=      5-min Rain = 0
KMCS 100630Z 29006KT M01/M08 A3031 RMK A01 T10081077  RH  060%=      5-min Rain = 0
KMCS 100635Z 29005KT M01/M08 A3031 RMK A01 T10091076  RH  060%=      5-min Rain = 0
KMCS 100640Z 29005KT M01/M08 A3031 RMK A01 T10081076  RH  060%=      5-min Rain = 0
KMCS 100645Z 29005KT M01/M08 A303 RMK A01 T10071075  RH  060%=      5-min Rain = 0
KMCS 100650Z 29005KT M01/M08 A303 RMK A01 T10071075  RH  060%=      5-min Rain = 0
KMCS 100655Z 30006KT M01/M08 A303 RMK A01 T10071075  RH  060%=      5-min Rain = 0
KMCS 100700Z 30007KT M01/M08 A303 RMK A01 T10081075  RH  061%=      5-min Rain = 0
KMCS 100705Z 30007KT M01/M08 A303 RMK A01 T10081075  RH  061%=      5-min Rain = 0
KMCS 100710Z 30008KT M01/M07 A303 RMK A01 T10071074  RH  060%=      5-min Rain = 0
KMCS 100715Z 30008KT M01/M08 A3029 RMK A01 T10071075  RH  060%=      5-min Rain = 0
KMCS 100720Z 31007KT M01/M08 A3029 RMK A01 T10071075  RH  060%=      5-min Rain = 0
KMCS 100725Z 31008KT M01/M08 A3029 RMK A01 T10091076  RH  060%=      5-min Rain = 0
KMCS 100730Z 31007KT M01/M08 A3029 RMK A01 T10121076  RH  061%=      5-min Rain = 0
KMCS 100735Z 30007KT M02/M08 A3029 RMK A01 T10171078  RH  063%=      5-min Rain = 0
KMCS 100740Z 30007KT M02/M08 A3029 RMK A01 T10181077  RH  064%=      5-min Rain = 0
KMCS 100745Z 30007KT M02/M08 A3029 RMK A01 T10151076  RH  063%=      5-min Rain = 0
KMCS 100750Z 30007KT M01/M08 A3029 RMK A01 T10111075  RH  062%=      5-min Rain = 0
KMCS 100755Z 30007KT M01/M08 A3028 RMK A01 T10101075  RH  061%=      5-min Rain = 0
KMCS 100800Z 29007KT M01/M08 A3028 RMK A01 T10101075  RH  061%=      5-min Rain = 0
KMCS 100805Z 30006KT M01/M08 A3028 RMK A01 T10111075  RH  061%=      5-min Rain = 0
KMCS 100810Z 29007KT M01/M07 A3028 RMK A01 T10091074  RH  061%=      5-min Rain = 0
KMCS 100815Z 29006KT M00/M07 A3028 RMK A01 T10041074  RH  059%=      5-min Rain = 0
KMCS 100820Z 29006KT M00/M07 A3028 RMK A01 T10011073  RH  058%=      5-min Rain = 0
KMCS 100825Z 30006KT M00/M08 A3028 RMK A01 T10041075  RH  059%=      5-min Rain = 0
KMCS 100830Z 29007KT M00/M07 A3028 RMK A01 T10041073  RH  059%=      5-min Rain = 0
KMCS 100835Z 29007KT M00/M07 A3028 RMK A01 T10031073  RH  059%=      5-min Rain = 0
KMCS 100840Z 29006KT M00/M07 A3028 RMK A01 T10021073  RH  059%=      5-min Rain = 0
KMCS 100845Z 29006KT 01/M07 A3028 RMK A01 T00061071  RH  056%=      5-min Rain = 0
KMCS 100850Z 29006KT 01/M07 A3028 RMK A01 T00111071  RH  055%=      5-min Rain = 0
KMCS 100855Z 29006KT 01/M07 A3028 RMK A01 T00091072  RH  055%=      5-min Rain = 0
KMCS 100900Z 30005KT 01/M07 A3028 RMK A01 T00081072  RH  055%=      5-min Rain = 0
KMCS 100905Z 30006KT 01/M07 A3028 RMK A01 T00081072  RH  055%=      5-min Rain = 0
KMCS 100910Z 31007KT 00/M07 A3029 RMK A01 T00041073  RH  056%=      5-min Rain = 0
KMCS 100915Z 30007KT M01/M07 A3029 RMK A01 T10051072  RH  060%=      5-min Rain = 0
KMCS 100920Z 29009KT 00/M07 A3029 RMK A01 T00021070  RH  058%=      5-min Rain = 0
KMCS 100925Z 30007KT 01/M07 A3029 RMK A01 T00051073  RH  056%=      5-min Rain = 0
KMCS 100930Z 31008KT M01/M07 A3029 RMK A01 T10081073  RH  061%=      5-min Rain = 0
KMCS 100935Z 31009KT M01/M07 A3029 RMK A01 T10081073  RH  061%=      5-min Rain = 0
KMCS 100940Z 31008KT M01/M07 A3028 RMK A01 T10091073  RH  062%=      5-min Rain = 0
KMCS 100945Z 31008KT M01/M07 A3028 RMK A01 T10111073  RH  062%=      5-min Rain = 0
KMCS 100950Z 31008KT M01/M07 A3028 RMK A01 T10101072  RH  062%=      5-min Rain = 0
KMCS 100955Z 31008KT M01/M07 A3028 RMK A01 T10101073  RH  063%=      5-min Rain = 0
KMCS 101000Z 31008KT M01/M07 A3028 RMK A01 T10121072  RH  063%=      5-min Rain = 0
KMCS 101005Z 30008KT M01/M07 A3028 RMK A01 T10071071  RH  062%=      5-min Rain = 0
KMCS 101010Z 31007KT M01/M07 A3028 RMK A01 T10101072  RH  063%=      5-min Rain = 0
KMCS 101015Z 29008KT M01/M07 A3028 RMK A01 T10091071  RH  063%=      5-min Rain = 0
KMCS 101020Z 29008KT 01/M07 A3028 RMK A01 T00061068  RH  058%=      5-min Rain = 0
KMCS 101025Z 32006KT M01/M07 A3028 RMK A01 T10091073  RH  062%=      5-min Rain = 0
KMCS 101030Z 31007KT M01/M07 A3028 RMK A01 T10071070  RH  062%=      5-min Rain = 0
KMCS 101035Z 30008KT M00/M07 A3028 RMK A01 T10021070  RH  060%=      5-min Rain = 0
KMCS 101040Z 30009KT M00/M07 A3028 RMK A01 T10041071  RH  061%=      5-min Rain = 0
KMCS 101045Z 30009KT M01/M07 A3027 RMK A01 T10071071  RH  062%=      5-min Rain = 0
KMCS 101050Z 30008KT M01/M07 A3027 RMK A01 T10111072  RH  063%=      5-min Rain = 0
KMCS 101055Z 31008KT M02/M07 A3027 RMK A01 T10171074  RH  065%=      5-min Rain = 0
KMCS 101100Z 32011KT M02/M07 A3028 RMK A01 T10171073  RH  066%=      5-min Rain = 0
KMCS 101105Z 33011KT M02/M07 A3028 RMK A01 T10191074  RH  066%=      5-min Rain = 0
KMCS 101110Z 32011KT M02/M08 A3028 RMK A01 T10231076  RH  067%=      5-min Rain = 0
KMCS 101115Z 33012KT M03/M08 A3028 RMK A01 T10271076  RH  069%=      5-min Rain = 0
KMCS 101120Z 32011KT M03/M08 A3028 RMK A01 T10301077  RH  070%=      5-min Rain = 0
KMCS 101125Z 32010KT M03/M08 A3028 RMK A01 T10341078  RH  072%=      5-min Rain = 0
KMCS 101130Z 32010KT M04/M08 A3028 RMK A01 T10391080  RH  074%=      5-min Rain = 0
KMCS 101135Z 31011KT M04/M08 A3028 RMK A01 T10401078  RH  075%=      5-min Rain = 0
KMCS 101140Z 32011KT M04/M08 A3028 RMK A01 T10371077  RH  074%=      5-min Rain = 0
KMCS 101145Z 32011KT M04/M08 A3028 RMK A01 T10391079  RH  074%=      5-min Rain = 0
KMCS 101150Z 32011KT M04/M08 A3028 RMK A01 T10401079  RH  074%=      5-min Rain = 0
KMCS 101155Z 32011KT M04/M08 A3028 RMK A01 T10391078  RH  075%=      5-min Rain = 0
KMCS 101200Z 31011KT M04/M08 A3028 RMK A01 T10371077  RH  074%=      5-min Rain = 0
KMCS 101205Z 31011KT M04/M08 A3029 RMK A01 T10361076  RH  074%=      5-min Rain = 0
KMCS 101210Z 31012KT M04/M08 A3029 RMK A01 T10371076  RH  074%=      5-min Rain = 0
KMCS 101215Z 30011KT M04/M08 A3029 RMK A01 T10381077  RH  075%=      5-min Rain = 0
KMCS 101220Z 30010KT M04/M08 A3029 RMK A01 T10401076  RH  076%=      5-min Rain = 0
KMCS 101225Z 31010KT M04/M07 A3029 RMK A01 T10361074  RH  075%=      5-min Rain = 0
KMCS 101230Z 31010KT M03/M07 A3029 RMK A01 T10341072  RH  075%=      5-min Rain = 0
KMCS 101235Z 31010KT M03/M07 A3029 RMK A01 T10301071  RH  073%=      5-min Rain = 0
KMCS 101240Z 31009KT M03/M07 A303 RMK A01 T10341074  RH  074%=      5-min Rain = 0
KMCS 101245Z 31010KT M04/M08 A303 RMK A01 T10401076  RH  076%=      5-min Rain = 0
KMCS 101250Z 31011KT M04/M08 A303 RMK A01 T10401075  RH  077%=      5-min Rain = 0
KMCS 101255Z 31010KT M04/M08 A303 RMK A01 T10391075  RH  076%=      5-min Rain = 0
KMCS 101300Z 31010KT M04/M08 A303 RMK A01 T10401075  RH  077%=      5-min Rain = 0
KMCS 101305Z 31010KT M04/M08 A303 RMK A01 T10421075  RH  077%=      5-min Rain = 0
KMCS 101310Z 32011KT M04/M08 A303 RMK A01 T10421075  RH  078%=      5-min Rain = 0
KMCS 101315Z 32010KT M04/M08 A303 RMK A01 T10431076  RH  078%=      5-min Rain = 0
KMCS 101320Z 32010KT M04/M08 A303 RMK A01 T10441077  RH  078%=      5-min Rain = 0
KMCS 101325Z 32011KT M05/M08 A3031 RMK A01 T10451077  RH  078%=      5-min Rain = 0
KMCS 101330Z 31011KT M05/M08 A3031 RMK A01 T10451077  RH  079%=      5-min Rain = 0
KMCS 101335Z 31010KT M05/M08 A3031 RMK A01 T10461077  RH  079%=      5-min Rain = 0
KMCS 101340Z 30010KT M05/M08 A3031 RMK A01 T10481078  RH  080%=      5-min Rain = 0
KMCS 101345Z 30010KT M04/M07 A3031 RMK A01 T10401072  RH  079%=      5-min Rain = 0
KMCS 101350Z 30010KT M03/M07 A3031 RMK A01 T10301069  RH  074%=      5-min Rain = 0
KMCS 101355Z 30010KT M03/M07 A3031 RMK A01 T10261069  RH  072%=      5-min Rain = 0
KMCS 101400Z 30010KT M02/M07 A3031 RMK A01 T10231069  RH  071%=      5-min Rain = 0
KMCS 101405Z 31009KT M03/M07 A3031 RMK A01 T10251069  RH  072%=      5-min Rain = 0
KMCS 101410Z 31009KT M03/M07 A3032 RMK A01 T10301069  RH  074%=      5-min Rain = 0
KMCS 101415Z 31009KT M03/M07 A3031 RMK A01 T10301068  RH  075%=      5-min Rain = 0
KMCS 101420Z 31009KT M03/M07 A3032 RMK A01 T10281067  RH  074%=      5-min Rain = 0
KMCS 101425Z 31009KT M03/M07 A3032 RMK A01 T10261067  RH  074%=      5-min Rain = 0
KMCS 101430Z 32009KT M02/M07 A3032 RMK A01 T10231066  RH  073%=      5-min Rain = 0
KMCS 101435Z 31009KT M02/M07 A3032 RMK A01 T10201065  RH  072%=      5-min Rain = 0
KMCS 101440Z 31008KT M02/M06 A3032 RMK A01 T10171063  RH  071%=      5-min Rain = 0
KMCS 101445Z 31008KT M01/M06 A3032 RMK A01 T10131062  RH  070%=      5-min Rain = 0
KMCS 101450Z 31009KT M01/M06 A3032 RMK A01 T10101060  RH  068%=      5-min Rain = 0
KMCS 101455Z 31010KT M01/M06 A3032 RMK A01 T10071061  RH  067%=      5-min Rain = 0
KMCS 101500Z 31010KT M00/M06 A3032 RMK A01 T10041061  RH  065%=      5-min Rain = 0
KMCS 101505Z 31010KT M00/M06 A3032 RMK A01 T10011061  RH  064%=      5-min Rain = 0
KMCS 101510Z 31009KT 00/M06 A3032 RMK A01 T00021060  RH  063%=      5-min Rain = 0
KMCS 101515Z 32009KT 01/M06 A3033 RMK A01 T00061060  RH  062%=      5-min Rain = 0
KMCS 101520Z 32009KT 01/M06 A3033 RMK A01 T00091059  RH  061%=      5-min Rain = 0
KMCS 101525Z 32008KT 01/M06 A3033 RMK A01 T00121060  RH  059%=      5-min Rain = 0
KMCS 101530Z 32008KT 02/M06 A3033 RMK A01 T00161059  RH  057%=      5-min Rain = 0
KMCS 101535Z 32008KT 02/M06 A3033 RMK A01 T00191059  RH  056%=      5-min Rain = 0
KMCS 101540Z 32008KT 02/M06 A3033 RMK A01 T00231059  RH  055%=      5-min Rain = 0
KMCS 101545Z 33008KT 03/M06 A3033 RMK A01 T00251059  RH  054%=      5-min Rain = 0
KMCS 101550Z 33008KT 03/M06 A3033 RMK A01 T00291060  RH  052%=      5-min Rain = 0
KMCS 101555Z 33008KT 03/M06 A3033 RMK A01 T00321059  RH  051%=      5-min Rain = 0
KMCS 101600Z 33008KT 03/M06 A3033 RMK A01 T00341060  RH  050%=      5-min Rain = 0
KMCS 101605Z 33008KT 04/M06 A3034 RMK A01 T00371059  RH  050%=      5-min Rain = 0
KMCS 101610Z 32008KT 04/M06 A3034 RMK A01 T00411060  RH  048%=      5-min Rain = 0
KMCS 101615Z 34007KT 05/M06 A3034 RMK A01 T00451060  RH  046%=      5-min Rain = 0
KMCS 101620Z 33007KT 05/M06 A3034 RMK A01 T00481062  RH  045%=      5-min Rain = 0
KMCS 101625Z 33006KT 05/M06 A3034 RMK A01 T00501062  RH  044%=      5-min Rain = 0
KMCS 101630Z 34005KT 05/M06 A3034 RMK A01 T00541063  RH  043%=      5-min Rain = 0
KMCS 101635Z 34005KT 06/M06 A3034 RMK A01 T00561062  RH  042%=      5-min Rain = 0
KMCS 101640Z 34005KT 06/M06 A3034 RMK A01 T00611062  RH  041%=      5-min Rain = 0
KMCS 101645Z 00005KT 06/M07 A3034 RMK A01 T00621066  RH  039%=      5-min Rain = 0
KMCS 101650Z 35006KT 06/M07 A3034 RMK A01 T00641066  RH  039%=      5-min Rain = 0
KMCS 101655Z 36004KT 07/M06 A3034 RMK A01 T00681063  RH  039%=      5-min Rain = 0
KMCS 101700Z 35004KT 07/M07 A3034 RMK A01 T00701065  RH  038%=      5-min Rain = 0
KMCS 101705Z 01003KT 07/M07 A3034 RMK A01 T00731069  RH  036%=      5-min Rain = 0
KMCS 101710Z 36002KT 07/M07 A3033 RMK A01 T00731069  RH  036%=      5-min Rain = 0
KMCS 101715Z 35002KT 08/M07 A3033 RMK A01 T00751068  RH  035%=      5-min Rain = 0
KMCS 101720Z 02002KT 08/M07 A3033 RMK A01 T00771068  RH  035%=      5-min Rain = 0
KMCS 101725Z 35003KT 08/M07 A3033 RMK A01 T00801070  RH  034%=      5-min Rain = 0
KMCS 101730Z 01001KT 08/M07 A3033 RMK A01 T00811070  RH  034%=      5-min Rain = 0
KMCS 101735Z 34000KT 09/M07 A3032 RMK A01 T00881069  RH  032%=      5-min Rain = 0
KMCS 101740Z 00001KT 09/M07 A3032 RMK A01 T00921074  RH  030%=      5-min Rain = 0
KMCS 101745Z 04001KT 09/M08 A3032 RMK A01 T00911075  RH  030%=      5-min Rain = 0
KMCS 101750Z 34001KT 10/M08 A3031 RMK A01 T00951075  RH  029%=      5-min Rain = 0
KMCS 101755Z 23000KT 10/M07 A3031 RMK A01 T00971073  RH  029%=      5-min Rain = 0
KMCS 101800Z 06002KT 10/M07 A3031 RMK A01 T01011073  RH  029%=      5-min Rain = 0
KMCS 101805Z 10002KT 10/M08 A303 RMK A01 T00981075  RH  029%=      5-min Rain = 0
KMCS 101810Z 01001KT 10/M08 A303 RMK A01 T00971075  RH  029%=      5-min Rain = 0
KMCS 101815Z 08003KT 10/M08 A303 RMK A01 T00961077  RH  029%=      5-min Rain = 0
KMCS 101820Z 07003KT 09/M08 A3029 RMK A01 T00941076  RH  029%=      5-min Rain = 0
KMCS 101825Z 03002KT 10/M08 A3029 RMK A01 T00991077  RH  028%=      5-min Rain = 0
KMCS 101830Z 00003KT 10/M08 A3029 RMK A01 T01021078  RH  027%=      5-min Rain = 0
KMCS 101835Z 35003KT 11/M08 A3029 RMK A01 T01061077  RH  027%=      5-min Rain = 0
KMCS 101840Z 30002KT 11/M08 A3028 RMK A01 T01061078  RH  027%=      5-min Rain = 0
KMCS 101845Z 29003KT 10/M08 A3028 RMK A01 T01041079  RH  027%=      5-min Rain = 0
KMCS 101850Z 29002KT 10/M08 A3028 RMK A01 T01031080  RH  027%=      5-min Rain = 0
KMCS 101855Z 30002KT 11/M08 A3028 RMK A01 T01091077  RH  026%=      5-min Rain = 0
KMCS 101900Z 31003KT 11/M08 A3028 RMK A01 T01081078  RH  026%=      5-min Rain = 0
KMCS 101905Z 31003KT 11/M08 A3027 RMK A01 T01081079  RH  026%=      5-min Rain = 0
KMCS 101910Z 32005G10KT 11/M08 A3027 RMK A01 T01131077  RH  026%=      5-min Rain = 0
KMCS 101915Z 32005KT 11/M08 A3027 RMK A01 T01111078  RH  026%=      5-min Rain = 0
KMCS 101920Z 33003KT 11/M08 A3026 RMK A01 T01121077  RH  026%=      5-min Rain = 0
KMCS 101925Z 35003KT 11/M08 A3026 RMK A01 T01141077  RH  025%=      5-min Rain = 0
KMCS 101930Z 01003KT 11/M08 A3026 RMK A01 T01141077  RH  025%=      5-min Rain = 0
KMCS 101935Z 36001KT 12/M08 A3026 RMK A01 T01161077  RH  025%=      5-min Rain = 0
KMCS 101940Z 29003G9KT 12/M08 A3026 RMK A01 T01221076  RH  024%=      5-min Rain = 0
KMCS 101945Z 31002G8KT 12/M08 A3026 RMK A01 T01191078  RH  024%=      5-min Rain = 0
KMCS 101950Z 27005KT 12/M08 A3026 RMK A01 T01221075  RH  024%=      5-min Rain = 0
KMCS 101955Z 27004KT 12/M08 A3025 RMK A01 T01211077  RH  024%=      5-min Rain = 0
KMCS 102000Z 26004G9KT 12/M08 A3025 RMK A01 T01191077  RH  025%=      5-min Rain = 0
KMCS 102005Z 27005KT 12/M08 A3025 RMK A01 T01191077  RH  025%=      5-min Rain = 0
KMCS 102010Z 27004KT 12/M08 A3025 RMK A01 T01181077  RH  025%=      5-min Rain = 0
KMCS 102015Z 23005KT 12/M08 A3025 RMK A01 T01211077  RH  024%=      5-min Rain = 0
KMCS 102020Z 26003KT 12/M08 A3025 RMK A01 T01241076  RH  024%=      5-min Rain = 0
KMCS 102025Z 29004KT 12/M08 A3024 RMK A01 T01211078  RH  024%=      5-min Rain = 0
KMCS 102030Z 27005KT 12/M08 A3024 RMK A01 T01221078  RH  024%=      5-min Rain = 0
KMCS 102035Z 28005KT 12/M08 A3024 RMK A01 T01231078  RH  024%=      5-min Rain = 0
KMCS 102040Z 31003KT 13/M08 A3024 RMK A01 T01251078  RH  024%=      5-min Rain = 0
KMCS 102045Z 29004KT 12/M08 A3024 RMK A01 T01221079  RH  024%=      5-min Rain = 0
KMCS 102050Z 22004G9KT 12/M08 A3024 RMK A01 T01241079  RH  023%=      5-min Rain = 0
KMCS 102055Z 25006KT 13/M08 A3024 RMK A01 T01261080  RH  023%=      5-min Rain = 0
KMCS 102100Z 25004KT 13/M08 A3024 RMK A01 T01251082  RH  023%=      5-min Rain = 0
KMCS 102105Z 26003KT 13/M08 A3024 RMK A01 T01261081  RH  023%=      5-min Rain = 0
KMCS 102110Z 27002KT 13/M08 A3024 RMK A01 T01251080  RH  023%=      5-min Rain = 0
KMCS 102115Z 25003KT 13/M08 A3024 RMK A01 T01291080  RH  023%=      5-min Rain = 0
KMCS 102120Z 28005KT 13/M08 A3024 RMK A01 T01291080  RH  022%=      5-min Rain = 0
KMCS 102125Z 26005KT 13/M08 A3024 RMK A01 T01281084  RH  022%=      5-min Rain = 0
KMCS 102130Z 26003KT 13/M08 A3024 RMK A01 T01271082  RH  022%=      5-min Rain = 0
KMCS 102135Z 20002KT 13/M08 A3024 RMK A01 T01281081  RH  023%=      5-min Rain = 0
KMCS 102140Z 24003KT 13/M08 A3024 RMK A01 T01281082  RH  022%=      5-min Rain = 0
KMCS 102145Z 26002G7KT 13/M08 A3024 RMK A01 T01291081  RH  022%=      5-min Rain = 0
KMCS 102150Z 23005KT 13/M08 A3024 RMK A01 T01291079  RH  023%=      5-min Rain = 0
KMCS 102155Z 16005KT 13/M08 A3024 RMK A01 T01291079  RH  023%=      5-min Rain = 0
KMCS 102200Z 16006KT 13/M08 A3024 RMK A01 T01281078  RH  023%=      5-min Rain = 0
KMCS 102205Z 14005KT 12/M07 A3024 RMK A01 T01231072  RH  025%=      5-min Rain = 0
KMCS 102210Z 15007KT 12/M07 A3024 RMK A01 T01221072  RH  025%=      5-min Rain = 0
KMCS 102215Z 14007KT 12/M07 A3024 RMK A01 T01211071  RH  026%=      5-min Rain = 0
KMCS 102220Z 14006KT 12/M07 A3024 RMK A01 T01211070  RH  026%=      5-min Rain = 0
KMCS 102225Z 14006KT 12/M07 A3023 RMK A01 T01211070  RH  026%=      5-min Rain = 0
KMCS 102230Z 15006KT 12/M07 A3023 RMK A01 T01211071  RH  026%=      5-min Rain = 0
KMCS 102235Z 14006KT 12/M07 A3023 RMK A01 T01201070  RH  026%=      5-min Rain = 0
KMCS 102240Z 16009G14KT 12/M07 A3023 RMK A01 T01161069  RH  027%=      5-min Rain = 0
KMCS 102245Z 16010KT 11/M07 A3023 RMK A01 T01081066  RH  029%=      5-min Rain = 0
KMCS 102250Z 16009KT 10/M07 A3024 RMK A01 T01041066  RH  029%=      5-min Rain = 0
KMCS 102255Z 16008KT 10/M07 A3024 RMK A01 T01021066  RH  030%=      5-min Rain = 0
KMCS 102300Z 16008KT 10/M07 A3024 RMK A01 T01001065  RH  031%=      5-min Rain = 0
KMCS 102305Z 15008KT 10/M07 A3024 RMK A01 T00971065  RH  031%=      5-min Rain = 0
KMCS 102310Z 15007KT 09/M07 A3024 RMK A01 T00931065  RH  032%=      5-min Rain = 0
KMCS 102315Z 15008KT 09/M07 A3024 RMK A01 T00891065  RH  033%=      5-min Rain = 0
KMCS 102320Z 15007KT 09/M07 A3024 RMK A01 T00851066  RH  034%=      5-min Rain = 0
KMCS 102325Z 15007KT 08/M07 A3024 RMK A01 T00801066  RH  035%=      5-min Rain = 0
KMCS 102330Z 15007KT 08/M07 A3024 RMK A01 T00751066  RH  036%=      5-min Rain = 0
KMCS 102335Z 15007KT 07/M07 A3024 RMK A01 T00721066  RH  037%=      5-min Rain = 0
KMCS 102340Z 15006KT 07/M07 A3024 RMK A01 T00691067  RH  037%=      5-min Rain = 0
KMCS 102345Z 15007KT 07/M07 A3024 RMK A01 T00651067  RH  038%=      5-min Rain = 0
KMCS 102350Z 16007KT 06/M07 A3024 RMK A01 T00631067  RH  039%=      5-min Rain = 0
KMCS 102355Z 15007KT 06/M07 A3024 RMK A01 T00601067  RH  040%=      5-min Rain = 0
KMCS 110000Z 16008KT 06/M07 A3024 RMK A01 T00601066  RH  040%=      5-min Rain = 0
KMCS 110005Z 15007KT 06/M07 A3024 RMK A01 T00591066  RH  040%=      5-min Rain = 0
KMCS 110010Z 15007KT 06/M07 A3024 RMK A01 T00551066  RH  041%=      5-min Rain = 0
KMCS 110015Z 16007KT 05/M07 A3024 RMK A01 T00521066  RH  042%=      5-min Rain = 0
KMCS 110020Z 16007KT 05/M07 A3025 RMK A01 T00511065  RH  043%=      5-min Rain = 0
KMCS 110025Z 16007KT 05/M06 A3025 RMK A01 T00511064  RH  043%=      5-min Rain = 0
KMCS 110030Z 17006KT 05/M07 A3025 RMK A01 T00481065  RH  044%=      5-min Rain = 0
KMCS 110035Z 16007KT 05/M06 A3025 RMK A01 T00461064  RH  045%=      5-min Rain = 0
KMCS 110040Z 16007KT 05/M06 A3024 RMK A01 T00451063  RH  046%=      5-min Rain = 0
KMCS 110045Z 16008KT 04/M06 A3025 RMK A01 T00441062  RH  046%=      5-min Rain = 0
KMCS 110050Z 16007KT 04/M06 A3025 RMK A01 T00441060  RH  047%=      5-min Rain = 0
KMCS 110055Z 16007KT 05/M06 A3025 RMK A01 T00451060  RH  047%=      5-min Rain = 0
KMCS 110100Z 16008KT 05/M06 A3025 RMK A01 T00451059  RH  047%=      5-min Rain = 0
KMCS 110105Z 16007KT 05/M06 A3025 RMK A01 T00451059  RH  047%=      5-min Rain = 0
KMCS 110110Z 16007KT 04/M06 A3025 RMK A01 T00431059  RH  047%=      5-min Rain = 0
KMCS 110115Z 16007KT 04/M06 A3024 RMK A01 T00431059  RH  048%=      5-min Rain = 0
KMCS 110120Z 16007KT 04/M06 A3024 RMK A01 T00421059  RH  048%=      5-min Rain = 0
KMCS 110125Z 16007KT 04/M06 A3024 RMK A01 T00401059  RH  049%=      5-min Rain = 0
KMCS 110130Z 16007KT 04/M06 A3024 RMK A01 T00391058  RH  049%=      5-min Rain = 0
KMCS 110135Z 16007KT 04/M06 A3024 RMK A01 T00391058  RH  049%=      5-min Rain = 0
KMCS 110140Z 15007KT 04/M06 A3024 RMK A01 T00371058  RH  050%=      5-min Rain = 0
KMCS 110145Z 16007KT 04/M06 A3024 RMK A01 T00361058  RH  050%=      5-min Rain = 0
KMCS 110150Z 15008KT 03/M06 A3024 RMK A01 T00341058  RH  051%=      5-min Rain = 0
KMCS 110155Z 15008KT 03/M06 A3024 RMK A01 T00321058  RH  051%=      5-min Rain = 0
KMCS 110200Z 15008KT 03/M06 A3024 RMK A01 T00321058  RH  052%=      5-min Rain = 0
KMCS 110205Z 15008KT 03/M06 A3024 RMK A01 T00311058  RH  052%=      5-min Rain = 0
KMCS 110210Z 16008KT 03/M06 A3024 RMK A01 T00311058  RH  052%=      5-min Rain = 0
KMCS 110215Z 16007KT 03/M06 A3024 RMK A01 T00291058  RH  053%=      5-min Rain = 0
KMCS 110220Z 16007KT 03/M06 A3024 RMK A01 T00271058  RH  053%=      5-min Rain = 0
KMCS 110225Z 17007KT 03/M06 A3024 RMK A01 T00261058  RH  054%=      5-min Rain = 0
KMCS 110230Z 17006KT 02/M06 A3024 RMK A01 T00241058  RH  055%=      5-min Rain = 0
KMCS 110235Z 17007KT 02/M06 A3024 RMK A01 T00221058  RH  055%=      5-min Rain = 0
KMCS 110240Z 17007KT 02/M06 A3024 RMK A01 T00211058  RH  056%=      5-min Rain = 0
KMCS 110245Z 17007KT 02/M06 A3024 RMK A01 T00221057  RH  056%=      5-min Rain = 0
KMCS 110250Z 17006KT 02/M06 A3024 RMK A01 T00211058  RH  056%=      5-min Rain = 0
KMCS 110255Z 17006KT 02/M06 A3024 RMK A01 T00211057  RH  056%=      5-min Rain = 0
KMCS 110300Z 17007KT 02/M06 A3024 RMK A01 T00211057  RH  057%=      5-min Rain = 0
KMCS 110305Z 17008KT 02/M06 A3024 RMK A01 T00211056  RH  057%=      5-min Rain = 0
KMCS 110310Z 17007KT 02/M06 A3024 RMK A01 T00201056  RH  057%=      5-min Rain = 0
KMCS 110315Z 17008KT 02/M06 A3024 RMK A01 T00181056  RH  058%=      5-min Rain = 0
KMCS 110320Z 17008KT 02/M05 A3024 RMK A01 T00191054  RH  059%=      5-min Rain = 0
KMCS 110325Z 17008KT 02/M05 A3024 RMK A01 T00211053  RH  058%=      5-min Rain = 0
KMCS 110330Z 17008KT 02/M05 A3024 RMK A01 T00211052  RH  059%=      5-min Rain = 0
KMCS 110335Z 18008KT 02/M05 A3024 RMK A01 T00181053  RH  060%=      5-min Rain = 0
KMCS 110340Z 17008KT 02/M05 A3024 RMK A01 T00181051  RH  061%=      5-min Rain = 0
KMCS 110345Z 17008KT 02/M05 A3024 RMK A01 T00221048  RH  060%=      5-min Rain = 0
KMCS 110350Z 17008KT 02/M05 A3024 RMK A01 T00231047  RH  060%=      5-min Rain = 0
KMCS 110355Z 18007KT 02/M05 A3024 RMK A01 T00201048  RH  061%=      5-min Rain = 0
KMCS 110400Z 18007KT 02/M05 A3024 RMK A01 T00171048  RH  062%=      5-min Rain = 0
KMCS 110405Z 17007KT 02/M05 A3024 RMK A01 T00171047  RH  063%=      5-min Rain = 0
KMCS 110410Z 17006KT 02/M05 A3024 RMK A01 T00181045  RH  063%=      5-min Rain = 0
KMCS 110415Z 17007KT 02/M04 A3024 RMK A01 T00181044  RH  064%=      5-min Rain = 0
KMCS 110420Z 18006KT 02/M05 A3024 RMK A01 T00161045  RH  064%=      5-min Rain = 0
KMCS 110425Z 18006KT 01/M05 A3024 RMK A01 T00101047  RH  066%=      5-min Rain = 0
KMCS 110430Z 17007KT 01/M05 A3023 RMK A01 T00091045  RH  067%=      5-min Rain = 0
KMCS 110435Z 17008KT 02/M04 A3023 RMK A01 T00161037  RH  068%=      5-min Rain = 0
KMCS 110440Z 17007KT 02/M04 A3023 RMK A01 T00181035  RH  068%=      5-min Rain = 0
KMCS 110445Z 18006KT 02/M04 A3023 RMK A01 T00161037  RH  068%=      5-min Rain = 0
KMCS 110450Z 19006KT 01/M04 A3024 RMK A01 T00071042  RH  070%=      5-min Rain = 0
KMCS 110455Z 19007KT 01/M04 A3024 RMK A01 T00051041  RH  072%=      5-min Rain = 0
KMCS 110500Z 19007KT 01/M04 A3024 RMK A01 T00061038  RH  073%=      5-min Rain = 0
KMCS 110505Z 19007KT 01/M04 A3024 RMK A01 T00081035  RH  074%=      5-min Rain = 0
KMCS 110510Z 20007KT 01/M03 A3024 RMK A01 T00081034  RH  074%=      5-min Rain = 0
KMCS 110515Z 20007KT 01/M03 A3024 RMK A01 T00071034  RH  074%=      5-min Rain = 0
KMCS 110520Z 20007KT 01/M03 A3023 RMK A01 T00071033  RH  075%=      5-min Rain = 0
KMCS 110525Z 20007KT 01/M03 A3024 RMK A01 T00091031  RH  075%=      5-min Rain = 0
KMCS 110530Z 20008KT 01/M03 A3023 RMK A01 T00081032  RH  075%=      5-min Rain = 0
KMCS 110535Z 20007KT 00/M03 A3023 RMK A01 T00041033  RH  076%=      5-min Rain = 0
KMCS 110540Z 20007KT 00/M03 A3023 RMK A01 T00041032  RH  077%=      5-min Rain = 0
KMCS 110545Z 20007KT 01/M03 A3023 RMK A01 T00061031  RH  077%=      5-min Rain = 0
KMCS 110550Z 20006KT 00/M03 A3023 RMK A01 T00041033  RH  077%=      5-min Rain = 0
KMCS 110555Z 20007KT 00/M03 A3023 RMK A01 T00031034  RH  077%=      5-min Rain = 0

Page generated in 0.0314 seconds.